sensor_id;sensor_type;location;lat;lon;timestamp;temperature;humidity
16825;DHT22;8529;48.108;-1.706;2023-02-28T00:00:24;3.60;98.20
16825;DHT22;8529;48.108;-1.706;2023-02-28T00:02:52;3.60;98.30
16825;DHT22;8529;48.108;-1.706;2023-02-28T00:05:23;3.50;98.20
16825;DHT22;8529;48.108;-1.706;2023-02-28T00:07:51;3.60;98.30
16825;DHT22;8529;48.108;-1.706;2023-02-28T00:10:19;3.50;98.20
16825;DHT22;8529;48.108;-1.706;2023-02-28T00:12:46;3.50;98.30
16825;DHT22;8529;48.108;-1.706;2023-02-28T00:15:13;3.50;98.40
16825;DHT22;8529;48.108;-1.706;2023-02-28T00:17:40;3.50;98.40
16825;DHT22;8529;48.108;-1.706;2023-02-28T00:20:09;3.50;98.40
16825;DHT22;8529;48.108;-1.706;2023-02-28T00:22:40;3.50;98.50
16825;DHT22;8529;48.108;-1.706;2023-02-28T00:25:08;3.40;98.50
16825;DHT22;8529;48.108;-1.706;2023-02-28T00:27:36;3.40;98.60
16825;DHT22;8529;48.108;-1.706;2023-02-28T00:30:05;3.40;98.50
16825;DHT22;8529;48.108;-1.706;2023-02-28T00:32:33;3.40;98.50
16825;DHT22;8529;48.108;-1.706;2023-02-28T00:35:00;3.50;98.50
16825;DHT22;8529;48.108;-1.706;2023-02-28T00:37:27;3.40;98.40
16825;DHT22;8529;48.108;-1.706;2023-02-28T00:39:55;3.40;98.60
16825;DHT22;8529;48.108;-1.706;2023-02-28T00:42:22;3.40;98.50
16825;DHT22;8529;48.108;-1.706;2023-02-28T00:44:50;3.40;98.50
16825;DHT22;8529;48.108;-1.706;2023-02-28T00:47:17;3.30;98.60
16825;DHT22;8529;48.108;-1.706;2023-02-28T00:49:44;3.30;98.60
16825;DHT22;8529;48.108;-1.706;2023-02-28T00:52:10;3.30;98.70
16825;DHT22;8529;48.108;-1.706;2023-02-28T00:54:37;3.30;98.60
16825;DHT22;8529;48.108;-1.706;2023-02-28T00:57:06;3.30;98.70
16825;DHT22;8529;48.108;-1.706;2023-02-28T00:59:33;3.30;98.70
16825;DHT22;8529;48.108;-1.706;2023-02-28T01:01:59;3.30;98.70
16825;DHT22;8529;48.108;-1.706;2023-02-28T01:04:26;3.30;98.60
16825;DHT22;8529;48.108;-1.706;2023-02-28T01:06:53;3.30;98.70
16825;DHT22;8529;48.108;-1.706;2023-02-28T01:09:20;3.30;98.70
16825;DHT22;8529;48.108;-1.706;2023-02-28T01:11:47;3.30;98.60
16825;DHT22;8529;48.108;-1.706;2023-02-28T01:14:16;3.30;98.60
16825;DHT22;8529;48.108;-1.706;2023-02-28T01:16:44;3.20;98.60
16825;DHT22;8529;48.108;-1.706;2023-02-28T01:19:11;3.20;98.60
16825;DHT22;8529;48.108;-1.706;2023-02-28T01:21:38;3.20;98.60
16825;DHT22;8529;48.108;-1.706;2023-02-28T01:24:06;3.20;98.70
16825;DHT22;8529;48.108;-1.706;2023-02-28T01:26:33;3.30;98.60
16825;DHT22;8529;48.108;-1.706;2023-02-28T01:29:00;3.20;98.50
16825;DHT22;8529;48.108;-1.706;2023-02-28T01:31:28;3.20;98.60
16825;DHT22;8529;48.108;-1.706;2023-02-28T01:33:55;3.20;98.60
16825;DHT22;8529;48.108;-1.706;2023-02-28T01:36:23;3.20;98.60
16825;DHT22;8529;48.108;-1.706;2023-02-28T01:38:51;3.20;98.60
16825;DHT22;8529;48.108;-1.706;2023-02-28T01:41:20;3.20;98.60
16825;DHT22;8529;48.108;-1.706;2023-02-28T01:43:59;3.20;98.60
16825;DHT22;8529;48.108;-1.706;2023-02-28T01:46:31;3.20;98.60
16825;DHT22;8529;48.108;-1.706;2023-02-28T01:49:04;3.20;98.50
16825;DHT22;8529;48.108;-1.706;2023-02-28T01:51:36;3.20;98.60
16825;DHT22;8529;48.108;-1.706;2023-02-28T01:54:08;3.20;98.70
16825;DHT22;8529;48.108;-1.706;2023-02-28T01:56:43;3.20;98.90
16825;DHT22;8529;48.108;-1.706;2023-02-28T01:59:13;3.10;98.80
16825;DHT22;8529;48.108;-1.706;2023-02-28T02:01:42;3.10;98.70
16825;DHT22;8529;48.108;-1.706;2023-02-28T02:04:09;3.10;98.70
16825;DHT22;8529;48.108;-1.706;2023-02-28T02:06:39;3.10;99.20
16825;DHT22;8529;48.108;-1.706;2023-02-28T02:09:07;3.10;98.90
16825;DHT22;8529;48.108;-1.706;2023-02-28T02:11:34;3.10;98.80
16825;DHT22;8529;48.108;-1.706;2023-02-28T02:14:16;3.00;98.90
16825;DHT22;8529;48.108;-1.706;2023-02-28T02:17:02;3.00;99.00
16825;DHT22;8529;48.108;-1.706;2023-02-28T02:20:03;3.00;99.10
16825;DHT22;8529;48.108;-1.706;2023-02-28T02:23:06;3.00;99.10
16825;DHT22;8529;48.108;-1.706;2023-02-28T02:25:39;3.00;99.00
16825;DHT22;8529;48.108;-1.706;2023-02-28T02:28:38;2.90;99.10
16825;DHT22;8529;48.108;-1.706;2023-02-28T02:31:41;3.00;99.10
16825;DHT22;8529;48.108;-1.706;2023-02-28T02:34:38;2.90;99.10
16825;DHT22;8529;48.108;-1.706;2023-02-28T02:37:23;3.00;99.20
16825;DHT22;8529;48.108;-1.706;2023-02-28T02:40:00;3.00;99.20
16825;DHT22;8529;48.108;-1.706;2023-02-28T02:42:38;3.00;99.30
16825;DHT22;8529;48.108;-1.706;2023-02-28T02:45:11;2.90;99.10
16825;DHT22;8529;48.108;-1.706;2023-02-28T02:47:40;2.90;99.20
16825;DHT22;8529;48.108;-1.706;2023-02-28T02:50:14;2.80;99.20
16825;DHT22;8529;48.108;-1.706;2023-02-28T02:52:46;2.80;99.30
16825;DHT22;8529;48.108;-1.706;2023-02-28T02:55:15;2.80;99.30
16825;DHT22;8529;48.108;-1.706;2023-02-28T02:57:47;2.80;99.40
16825;DHT22;8529;48.108;-1.706;2023-02-28T03:00:19;2.80;99.50
16825;DHT22;8529;48.108;-1.706;2023-02-28T03:02:47;2.80;99.50
16825;DHT22;8529;48.108;-1.706;2023-02-28T03:05:19;2.70;99.40
16825;DHT22;8529;48.108;-1.706;2023-02-28T03:07:46;2.60;99.50
16825;DHT22;8529;48.108;-1.706;2023-02-28T03:10:33;2.60;99.50
16825;DHT22;8529;48.108;-1.706;2023-02-28T03:13:45;2.60;99.60
16825;DHT22;8529;48.108;-1.706;2023-02-28T03:16:33;2.60;99.60
16825;DHT22;8529;48.108;-1.706;2023-02-28T03:19:22;2.60;99.60
16825;DHT22;8529;48.108;-1.706;2023-02-28T03:22:02;2.60;99.60
16825;DHT22;8529;48.108;-1.706;2023-02-28T03:24:41;2.60;99.50
16825;DHT22;8529;48.108;-1.706;2023-02-28T03:27:15;2.60;99.80
16825;DHT22;8529;48.108;-1.706;2023-02-28T03:29:47;2.70;99.60
16825;DHT22;8529;48.108;-1.706;2023-02-28T03:32:21;2.60;99.70
16825;DHT22;8529;48.108;-1.706;2023-02-28T03:34:55;2.60;99.70
16825;DHT22;8529;48.108;-1.706;2023-02-28T03:37:25;2.60;99.70
16825;DHT22;8529;48.108;-1.706;2023-02-28T03:39:58;2.60;99.90
16825;DHT22;8529;48.108;-1.706;2023-02-28T03:42:27;2.60;99.80
16825;DHT22;8529;48.108;-1.706;2023-02-28T03:44:57;2.70;99.90
16825;DHT22;8529;48.108;-1.706;2023-02-28T03:47:28;2.60;99.70
16825;DHT22;8529;48.108;-1.706;2023-02-28T03:50:00;2.60;99.70
16825;DHT22;8529;48.108;-1.706;2023-02-28T03:52:33;2.50;99.90
16825;DHT22;8529;48.108;-1.706;2023-02-28T03:55:05;2.50;99.90
16825;DHT22;8529;48.108;-1.706;2023-02-28T03:57:38;2.50;99.80
16825;DHT22;8529;48.108;-1.706;2023-02-28T04:00:10;2.50;99.80
16825;DHT22;8529;48.108;-1.706;2023-02-28T04:02:39;2.40;99.80
16825;DHT22;8529;48.108;-1.706;2023-02-28T04:05:07;2.40;99.90
16825;DHT22;8529;48.108;-1.706;2023-02-28T04:07:35;2.40;99.90
16825;DHT22;8529;48.108;-1.706;2023-02-28T04:10:04;2.40;99.90
16825;DHT22;8529;48.108;-1.706;2023-02-28T04:12:31;2.40;99.90
16825;DHT22;8529;48.108;-1.706;2023-02-28T04:14:58;2.30;99.90
16825;DHT22;8529;48.108;-1.706;2023-02-28T04:17:25;2.40;99.90
16825;DHT22;8529;48.108;-1.706;2023-02-28T04:19:52;2.40;99.90
16825;DHT22;8529;48.108;-1.706;2023-02-28T04:22:19;2.30;99.90
16825;DHT22;8529;48.108;-1.706;2023-02-28T04:24:47;2.30;99.90
16825;DHT22;8529;48.108;-1.706;2023-02-28T04:27:14;2.30;99.90
16825;DHT22;8529;48.108;-1.706;2023-02-28T04:29:42;2.20;99.90
16825;DHT22;8529;48.108;-1.706;2023-02-28T04:32:10;2.30;99.90
16825;DHT22;8529;48.108;-1.706;2023-02-28T04:34:37;2.30;99.90
16825;DHT22;8529;48.108;-1.706;2023-02-28T04:37:04;2.20;99.90
16825;DHT22;8529;48.108;-1.706;2023-02-28T04:39:35;2.20;99.90
16825;DHT22;8529;48.108;-1.706;2023-02-28T04:42:03;2.20;99.90
16825;DHT22;8529;48.108;-1.706;2023-02-28T04:44:30;2.20;99.90
16825;DHT22;8529;48.108;-1.706;2023-02-28T04:46:58;2.20;99.90
16825;DHT22;8529;48.108;-1.706;2023-02-28T04:49:25;2.20;99.90
16825;DHT22;8529;48.108;-1.706;2023-02-28T04:51:52;2.20;99.90
16825;DHT22;8529;48.108;-1.706;2023-02-28T04:54:19;2.20;99.90
16825;DHT22;8529;48.108;-1.706;2023-02-28T04:56:46;2.10;99.90
16825;DHT22;8529;48.108;-1.706;2023-02-28T04:59:16;2.10;99.90
16825;DHT22;8529;48.108;-1.706;2023-02-28T05:01:46;2.10;99.90
16825;DHT22;8529;48.108;-1.706;2023-02-28T05:04:14;2.10;99.90
16825;DHT22;8529;48.108;-1.706;2023-02-28T05:06:40;2.10;99.90
16825;DHT22;8529;48.108;-1.706;2023-02-28T05:09:07;2.10;99.90
16825;DHT22;8529;48.108;-1.706;2023-02-28T05:11:37;2.00;99.90
16825;DHT22;8529;48.108;-1.706;2023-02-28T05:14:06;2.10;99.90
16825;DHT22;8529;48.108;-1.706;2023-02-28T05:16:34;2.00;99.90
16825;DHT22;8529;48.108;-1.706;2023-02-28T05:19:02;2.00;99.90
16825;DHT22;8529;48.108;-1.706;2023-02-28T05:21:31;2.00;99.90
16825;DHT22;8529;48.108;-1.706;2023-02-28T05:23:59;2.00;99.90
16825;DHT22;8529;48.108;-1.706;2023-02-28T05:26:27;2.10;99.90
16825;DHT22;8529;48.108;-1.706;2023-02-28T05:28:54;2.10;99.90
16825;DHT22;8529;48.108;-1.706;2023-02-28T05:31:21;2.00;99.90
16825;DHT22;8529;48.108;-1.706;2023-02-28T05:33:50;2.00;99.90
16825;DHT22;8529;48.108;-1.706;2023-02-28T05:36:17;2.00;99.90
16825;DHT22;8529;48.108;-1.706;2023-02-28T05:38:46;2.00;99.90
16825;DHT22;8529;48.108;-1.706;2023-02-28T05:41:13;1.90;99.90
16825;DHT22;8529;48.108;-1.706;2023-02-28T05:43:40;1.90;99.90
16825;DHT22;8529;48.108;-1.706;2023-02-28T05:46:08;1.90;99.90
16825;DHT22;8529;48.108;-1.706;2023-02-28T05:48:37;1.90;99.90
16825;DHT22;8529;48.108;-1.706;2023-02-28T05:51:07;1.90;99.90
16825;DHT22;8529;48.108;-1.706;2023-02-28T05:53:34;1.90;99.90
16825;DHT22;8529;48.108;-1.706;2023-02-28T05:56:02;1.90;99.90
16825;DHT22;8529;48.108;-1.706;2023-02-28T05:58:30;1.80;99.90
16825;DHT22;8529;48.108;-1.706;2023-02-28T06:00:57;1.90;99.90
16825;DHT22;8529;48.108;-1.706;2023-02-28T06:03:25;1.90;99.90
16825;DHT22;8529;48.108;-1.706;2023-02-28T06:05:52;1.90;99.90
16825;DHT22;8529;48.108;-1.706;2023-02-28T06:08:20;1.90;99.90
16825;DHT22;8529;48.108;-1.706;2023-02-28T06:10:47;1.90;99.90
16825;DHT22;8529;48.108;-1.706;2023-02-28T06:13:14;2.00;99.90
16825;DHT22;8529;48.108;-1.706;2023-02-28T06:15:41;2.00;99.90
16825;DHT22;8529;48.108;-1.706;2023-02-28T06:18:08;2.00;99.90
16825;DHT22;8529;48.108;-1.706;2023-02-28T06:20:35;1.90;99.90
16825;DHT22;8529;48.108;-1.706;2023-02-28T06:23:02;1.90;99.90
16825;DHT22;8529;48.108;-1.706;2023-02-28T06:25:31;1.90;99.90
16825;DHT22;8529;48.108;-1.706;2023-02-28T06:27:58;1.80;99.90
16825;DHT22;8529;48.108;-1.706;2023-02-28T06:30:25;1.80;99.90
16825;DHT22;8529;48.108;-1.706;2023-02-28T06:32:54;1.80;99.90
16825;DHT22;8529;48.108;-1.706;2023-02-28T06:35:21;1.80;99.90
16825;DHT22;8529;48.108;-1.706;2023-02-28T06:37:48;1.80;99.90
16825;DHT22;8529;48.108;-1.706;2023-02-28T06:40:15;1.90;99.90
16825;DHT22;8529;48.108;-1.706;2023-02-28T06:42:43;2.00;99.90
16825;DHT22;8529;48.108;-1.706;2023-02-28T06:45:11;1.90;99.80
16825;DHT22;8529;48.108;-1.706;2023-02-28T06:47:39;1.80;99.80
16825;DHT22;8529;48.108;-1.706;2023-02-28T06:50:08;1.80;99.90
16825;DHT22;8529;48.108;-1.706;2023-02-28T06:52:35;1.80;99.80
16825;DHT22;8529;48.108;-1.706;2023-02-28T06:55:03;1.80;99.90
16825;DHT22;8529;48.108;-1.706;2023-02-28T06:57:31;1.80;99.90
16825;DHT22;8529;48.108;-1.706;2023-02-28T07:00:01;1.80;99.90
16825;DHT22;8529;48.108;-1.706;2023-02-28T07:02:30;1.70;99.90
16825;DHT22;8529;48.108;-1.706;2023-02-28T07:04:57;1.80;99.90
16825;DHT22;8529;48.108;-1.706;2023-02-28T07:07:24;1.90;99.90
16825;DHT22;8529;48.108;-1.706;2023-02-28T07:09:51;2.00;99.90
16825;DHT22;8529;48.108;-1.706;2023-02-28T07:12:18;1.90;99.90
16825;DHT22;8529;48.108;-1.706;2023-02-28T07:14:44;2.00;99.90
16825;DHT22;8529;48.108;-1.706;2023-02-28T07:17:13;1.90;99.90
16825;DHT22;8529;48.108;-1.706;2023-02-28T07:19:40;1.90;99.90
16825;DHT22;8529;48.108;-1.706;2023-02-28T07:22:07;1.90;99.90
16825;DHT22;8529;48.108;-1.706;2023-02-28T07:24:34;1.90;99.90
16825;DHT22;8529;48.108;-1.706;2023-02-28T07:27:01;1.90;99.90
16825;DHT22;8529;48.108;-1.706;2023-02-28T07:29:28;2.00;99.90
16825;DHT22;8529;48.108;-1.706;2023-02-28T07:31:55;1.90;99.90
16825;DHT22;8529;48.108;-1.706;2023-02-28T07:34:24;1.90;99.90
16825;DHT22;8529;48.108;-1.706;2023-02-28T07:36:53;1.90;99.90
16825;DHT22;8529;48.108;-1.706;2023-02-28T07:39:20;1.90;99.90
16825;DHT22;8529;48.108;-1.706;2023-02-28T07:41:47;1.90;99.90
16825;DHT22;8529;48.108;-1.706;2023-02-28T07:44:14;2.00;99.90
16825;DHT22;8529;48.108;-1.706;2023-02-28T07:46:41;2.00;99.90
16825;DHT22;8529;48.108;-1.706;2023-02-28T07:49:08;2.10;99.90
16825;DHT22;8529;48.108;-1.706;2023-02-28T07:51:36;2.10;99.90
16825;DHT22;8529;48.108;-1.706;2023-02-28T07:54:03;2.20;99.90
16825;DHT22;8529;48.108;-1.706;2023-02-28T07:56:30;2.20;99.90
16825;DHT22;8529;48.108;-1.706;2023-02-28T07:58:57;2.20;99.90
16825;DHT22;8529;48.108;-1.706;2023-02-28T08:01:24;2.20;99.90
16825;DHT22;8529;48.108;-1.706;2023-02-28T08:03:51;2.30;99.90
16825;DHT22;8529;48.108;-1.706;2023-02-28T08:06:21;2.30;99.90
16825;DHT22;8529;48.108;-1.706;2023-02-28T08:08:50;2.40;99.90
16825;DHT22;8529;48.108;-1.706;2023-02-28T08:11:17;2.40;99.80
16825;DHT22;8529;48.108;-1.706;2023-02-28T08:13:45;2.40;99.70
16825;DHT22;8529;48.108;-1.706;2023-02-28T08:16:12;2.50;99.90
16825;DHT22;8529;48.108;-1.706;2023-02-28T08:18:43;2.50;99.80
16825;DHT22;8529;48.108;-1.706;2023-02-28T08:21:10;2.60;99.90
16825;DHT22;8529;48.108;-1.706;2023-02-28T08:23:37;2.70;99.90
16825;DHT22;8529;48.108;-1.706;2023-02-28T08:26:06;2.70;99.70
16825;DHT22;8529;48.108;-1.706;2023-02-28T08:28:33;2.80;99.90
16825;DHT22;8529;48.108;-1.706;2023-02-28T08:31:00;2.70;99.50
16825;DHT22;8529;48.108;-1.706;2023-02-28T08:33:27;2.80;99.80
16825;DHT22;8529;48.108;-1.706;2023-02-28T08:35:54;2.80;99.30
16825;DHT22;8529;48.108;-1.706;2023-02-28T08:38:22;2.80;99.60
16825;DHT22;8529;48.108;-1.706;2023-02-28T08:40:49;2.90;99.70
16825;DHT22;8529;48.108;-1.706;2023-02-28T08:43:17;3.00;99.70
16825;DHT22;8529;48.108;-1.706;2023-02-28T08:45:44;3.10;99.80
16825;DHT22;8529;48.108;-1.706;2023-02-28T08:48:11;3.10;99.30
16825;DHT22;8529;48.108;-1.706;2023-02-28T08:50:39;3.10;99.20
16825;DHT22;8529;48.108;-1.706;2023-02-28T08:53:06;3.20;99.20
16825;DHT22;8529;48.108;-1.706;2023-02-28T08:55:32;3.20;99.10
16825;DHT22;8529;48.108;-1.706;2023-02-28T08:57:59;3.20;99.10
16825;DHT22;8529;48.108;-1.706;2023-02-28T09:00:28;3.30;99.30
16825;DHT22;8529;48.108;-1.706;2023-02-28T09:02:55;3.30;99.00
16825;DHT22;8529;48.108;-1.706;2023-02-28T09:05:22;3.40;99.00
16825;DHT22;8529;48.108;-1.706;2023-02-28T09:07:49;3.40;99.00
16825;DHT22;8529;48.108;-1.706;2023-02-28T09:10:16;3.50;99.00
16825;DHT22;8529;48.108;-1.706;2023-02-28T09:12:43;3.50;99.20
16825;DHT22;8529;48.108;-1.706;2023-02-28T09:15:12;3.60;98.90
16825;DHT22;8529;48.108;-1.706;2023-02-28T09:17:40;3.60;98.80
16825;DHT22;8529;48.108;-1.706;2023-02-28T09:20:09;3.70;98.60
16825;DHT22;8529;48.108;-1.706;2023-02-28T09:22:36;3.70;98.80
16825;DHT22;8529;48.108;-1.706;2023-02-28T09:25:03;3.80;98.80
16825;DHT22;8529;48.108;-1.706;2023-02-28T09:27:30;3.80;98.60
16825;DHT22;8529;48.108;-1.706;2023-02-28T09:29:57;3.80;98.00
16825;DHT22;8529;48.108;-1.706;2023-02-28T09:32:24;3.90;98.30
16825;DHT22;8529;48.108;-1.706;2023-02-28T09:34:52;4.00;98.30
16825;DHT22;8529;48.108;-1.706;2023-02-28T09:37:19;4.00;97.70
16825;DHT22;8529;48.108;-1.706;2023-02-28T09:39:46;4.10;97.70
16825;DHT22;8529;48.108;-1.706;2023-02-28T09:42:21;4.10;97.80
16825;DHT22;8529;48.108;-1.706;2023-02-28T09:44:49;4.20;97.50
16825;DHT22;8529;48.108;-1.706;2023-02-28T09:47:25;4.20;97.60
16825;DHT22;8529;48.108;-1.706;2023-02-28T09:49:56;4.30;97.10
16825;DHT22;8529;48.108;-1.706;2023-02-28T09:52:29;4.40;97.30
16825;DHT22;8529;48.108;-1.706;2023-02-28T09:55:00;4.50;97.10
16825;DHT22;8529;48.108;-1.706;2023-02-28T09:57:32;4.50;96.80
16825;DHT22;8529;48.108;-1.706;2023-02-28T10:00:06;4.60;97.10
16825;DHT22;8529;48.108;-1.706;2023-02-28T10:02:52;4.70;96.90
16825;DHT22;8529;48.108;-1.706;2023-02-28T10:05:26;4.70;96.40
16825;DHT22;8529;48.108;-1.706;2023-02-28T10:08:02;4.80;95.80
16825;DHT22;8529;48.108;-1.706;2023-02-28T10:10:35;4.80;95.90
16825;DHT22;8529;48.108;-1.706;2023-02-28T10:13:07;4.90;95.90
16825;DHT22;8529;48.108;-1.706;2023-02-28T10:15:39;4.90;95.60
16825;DHT22;8529;48.108;-1.706;2023-02-28T10:18:11;5.00;95.40
16825;DHT22;8529;48.108;-1.706;2023-02-28T10:20:42;5.10;95.10
16825;DHT22;8529;48.108;-1.706;2023-02-28T10:23:14;5.20;95.10
16825;DHT22;8529;48.108;-1.706;2023-02-28T10:25:45;5.40;95.20
16825;DHT22;8529;48.108;-1.706;2023-02-28T10:28:16;5.60;94.50
16825;DHT22;8529;48.108;-1.706;2023-02-28T10:30:46;5.80;94.20
16825;DHT22;8529;48.108;-1.706;2023-02-28T10:33:19;5.80;93.20
16825;DHT22;8529;48.108;-1.706;2023-02-28T10:35:49;5.90;93.20
16825;DHT22;8529;48.108;-1.706;2023-02-28T10:38:20;5.90;93.20
16825;DHT22;8529;48.108;-1.706;2023-02-28T10:40:47;5.90;91.90
16825;DHT22;8529;48.108;-1.706;2023-02-28T10:43:20;5.80;91.60
16825;DHT22;8529;48.108;-1.706;2023-02-28T10:45:59;5.70;91.90
16825;DHT22;8529;48.108;-1.706;2023-02-28T10:48:34;5.70;92.10
16825;DHT22;8529;48.108;-1.706;2023-02-28T10:51:05;5.80;92.00
16825;DHT22;8529;48.108;-1.706;2023-02-28T10:53:45;5.90;91.70
16825;DHT22;8529;48.108;-1.706;2023-02-28T10:56:17;5.90;91.40
16825;DHT22;8529;48.108;-1.706;2023-02-28T10:58:53;5.90;91.90
16825;DHT22;8529;48.108;-1.706;2023-02-28T11:01:23;5.90;91.50
16825;DHT22;8529;48.108;-1.706;2023-02-28T11:03:51;5.90;91.50
16825;DHT22;8529;48.108;-1.706;2023-02-28T11:06:22;6.00;91.40
16825;DHT22;8529;48.108;-1.706;2023-02-28T11:08:51;6.00;90.90
16825;DHT22;8529;48.108;-1.706;2023-02-28T11:11:20;6.10;90.60
16825;DHT22;8529;48.108;-1.706;2023-02-28T11:13:51;6.10;90.60
16825;DHT22;8529;48.108;-1.706;2023-02-28T11:16:20;6.20;90.50
16825;DHT22;8529;48.108;-1.706;2023-02-28T11:18:49;6.20;90.50
16825;DHT22;8529;48.108;-1.706;2023-02-28T11:21:24;6.30;90.30
16825;DHT22;8529;48.108;-1.706;2023-02-28T11:23:59;6.30;90.60
16825;DHT22;8529;48.108;-1.706;2023-02-28T11:26:42;6.40;90.00
16825;DHT22;8529;48.108;-1.706;2023-02-28T11:29:16;6.40;90.30
16825;DHT22;8529;48.108;-1.706;2023-02-28T11:32:05;6.40;90.10
16825;DHT22;8529;48.108;-1.706;2023-02-28T11:34:34;6.40;89.30
16825;DHT22;8529;48.108;-1.706;2023-02-28T11:37:05;6.40;89.70
16825;DHT22;8529;48.108;-1.706;2023-02-28T11:39:36;6.40;89.50
16825;DHT22;8529;48.108;-1.706;2023-02-28T11:45:08;6.60;88.50
16825;DHT22;8529;48.108;-1.706;2023-02-28T11:47:47;6.60;87.50
16825;DHT22;8529;48.108;-1.706;2023-02-28T11:50:26;6.60;87.20
16825;DHT22;8529;48.108;-1.706;2023-02-28T11:53:01;6.60;86.60
16825;DHT22;8529;48.108;-1.706;2023-02-28T11:55:35;6.60;86.70
16825;DHT22;8529;48.108;-1.706;2023-02-28T11:58:25;6.60;87.50
16825;DHT22;8529;48.108;-1.706;2023-02-28T12:01:07;6.70;88.50
16825;DHT22;8529;48.108;-1.706;2023-02-28T12:03:43;6.70;88.40
16825;DHT22;8529;48.108;-1.706;2023-02-28T12:06:18;6.80;88.70
16825;DHT22;8529;48.108;-1.706;2023-02-28T12:09:02;6.90;87.20
16825;DHT22;8529;48.108;-1.706;2023-02-28T12:11:48;7.00;86.80
16825;DHT22;8529;48.108;-1.706;2023-02-28T12:14:50;7.00;86.70
16825;DHT22;8529;48.108;-1.706;2023-02-28T12:17:37;7.00;86.10
16825;DHT22;8529;48.108;-1.706;2023-02-28T12:20:13;7.00;86.20
16825;DHT22;8529;48.108;-1.706;2023-02-28T12:22:49;7.10;86.30
16825;DHT22;8529;48.108;-1.706;2023-02-28T12:28:23;7.20;86.00
16825;DHT22;8529;48.108;-1.706;2023-02-28T12:30:58;7.20;86.10
16825;DHT22;8529;48.108;-1.706;2023-02-28T12:33:31;7.20;87.10
16825;DHT22;8529;48.108;-1.706;2023-02-28T12:36:03;7.20;87.70
16825;DHT22;8529;48.108;-1.706;2023-02-28T12:38:35;7.20;88.40
16825;DHT22;8529;48.108;-1.706;2023-02-28T12:41:09;7.20;88.10
16825;DHT22;8529;48.108;-1.706;2023-02-28T12:43:40;7.30;88.90
16825;DHT22;8529;48.108;-1.706;2023-02-28T12:46:12;7.30;88.30
16825;DHT22;8529;48.108;-1.706;2023-02-28T12:48:44;7.30;87.10
16825;DHT22;8529;48.108;-1.706;2023-02-28T12:51:13;7.40;87.80
16825;DHT22;8529;48.108;-1.706;2023-02-28T12:53:50;7.50;88.50
16825;DHT22;8529;48.108;-1.706;2023-02-28T12:56:32;7.50;87.40
16825;DHT22;8529;48.108;-1.706;2023-02-28T12:59:03;7.50;88.30
16825;DHT22;8529;48.108;-1.706;2023-02-28T13:01:44;7.60;87.50
16825;DHT22;8529;48.108;-1.706;2023-02-28T13:04:52;7.60;88.00
16825;DHT22;8529;48.108;-1.706;2023-02-28T13:07:41;7.50;88.50
16825;DHT22;8529;48.108;-1.706;2023-02-28T13:10:13;7.50;88.80
16825;DHT22;8529;48.108;-1.706;2023-02-28T13:12:49;7.40;88.60
16825;DHT22;8529;48.108;-1.706;2023-02-28T13:15:19;7.40;89.10
16825;DHT22;8529;48.108;-1.706;2023-02-28T13:17:51;7.40;89.40
16825;DHT22;8529;48.108;-1.706;2023-02-28T13:20:20;7.50;90.20
16825;DHT22;8529;48.108;-1.706;2023-02-28T13:22:49;7.70;90.30
16825;DHT22;8529;48.108;-1.706;2023-02-28T13:34:36;7.90;89.90
16825;DHT22;8529;48.108;-1.706;2023-02-28T13:37:35;7.90;90.00
16825;DHT22;8529;48.108;-1.706;2023-02-28T13:40:29;8.00;89.90
16825;DHT22;8529;48.108;-1.706;2023-02-28T13:43:02;7.90;89.80
16825;DHT22;8529;48.108;-1.706;2023-02-28T13:45:30;7.90;90.00
16825;DHT22;8529;48.108;-1.706;2023-02-28T13:48:04;7.80;90.00
16825;DHT22;8529;48.108;-1.706;2023-02-28T13:50:37;7.70;90.40
16825;DHT22;8529;48.108;-1.706;2023-02-28T13:53:43;7.70;90.50
16825;DHT22;8529;48.108;-1.706;2023-02-28T13:56:26;7.60;90.70
16825;DHT22;8529;48.108;-1.706;2023-02-28T13:58:57;7.50;90.70
16825;DHT22;8529;48.108;-1.706;2023-02-28T14:01:35;7.50;90.90
16825;DHT22;8529;48.108;-1.706;2023-02-28T14:04:23;7.40;91.30
16825;DHT22;8529;48.108;-1.706;2023-02-28T14:06:57;7.40;91.60
16825;DHT22;8529;48.108;-1.706;2023-02-28T14:09:27;7.30;91.40
16825;DHT22;8529;48.108;-1.706;2023-02-28T14:11:55;7.20;91.80
16825;DHT22;8529;48.108;-1.706;2023-02-28T14:14:55;7.10;92.10
16825;DHT22;8529;48.108;-1.706;2023-02-28T14:17:25;7.10;92.30
16825;DHT22;8529;48.108;-1.706;2023-02-28T14:19:53;7.00;92.70
16825;DHT22;8529;48.108;-1.706;2023-02-28T14:22:43;7.00;92.60
16825;DHT22;8529;48.108;-1.706;2023-02-28T14:25:23;7.00;92.70
16825;DHT22;8529;48.108;-1.706;2023-02-28T14:28:02;7.00;92.90
16825;DHT22;8529;48.108;-1.706;2023-02-28T14:31:04;7.00;93.20
16825;DHT22;8529;48.108;-1.706;2023-02-28T14:33:46;7.00;93.30
16825;DHT22;8529;48.108;-1.706;2023-02-28T14:36:22;7.10;93.60
16825;DHT22;8529;48.108;-1.706;2023-02-28T14:38:55;7.00;93.60
16825;DHT22;8529;48.108;-1.706;2023-02-28T14:41:27;7.00;93.80
16825;DHT22;8529;48.108;-1.706;2023-02-28T14:43:57;7.00;94.40
16825;DHT22;8529;48.108;-1.706;2023-02-28T14:46:28;6.90;95.50
16825;DHT22;8529;48.108;-1.706;2023-02-28T14:48:56;6.90;96.50
16825;DHT22;8529;48.108;-1.706;2023-02-28T14:51:24;6.80;97.10
16825;DHT22;8529;48.108;-1.706;2023-02-28T14:53:57;6.70;97.30
16825;DHT22;8529;48.108;-1.706;2023-02-28T14:56:28;6.70;97.50
16825;DHT22;8529;48.108;-1.706;2023-02-28T14:58:57;6.70;98.10
16825;DHT22;8529;48.108;-1.706;2023-02-28T15:01:25;6.70;98.30
16825;DHT22;8529;48.108;-1.706;2023-02-28T15:04:01;6.60;98.30
16825;DHT22;8529;48.108;-1.706;2023-02-28T15:06:28;6.60;98.30
16825;DHT22;8529;48.108;-1.706;2023-02-28T15:09:15;6.60;98.70
16825;DHT22;8529;48.108;-1.706;2023-02-28T15:11:46;6.60;98.60
16825;DHT22;8529;48.108;-1.706;2023-02-28T15:14:21;6.70;98.60
16825;DHT22;8529;48.108;-1.706;2023-02-28T15:16:51;6.70;99.00
16825;DHT22;8529;48.108;-1.706;2023-02-28T15:19:21;6.80;99.00
16825;DHT22;8529;48.108;-1.706;2023-02-28T15:21:52;6.80;99.10
16825;DHT22;8529;48.108;-1.706;2023-02-28T15:24:30;6.80;99.40
16825;DHT22;8529;48.108;-1.706;2023-02-28T15:27:03;6.80;99.60
16825;DHT22;8529;48.108;-1.706;2023-02-28T15:29:37;6.70;99.80
16825;DHT22;8529;48.108;-1.706;2023-02-28T15:32:18;6.60;99.90
16825;DHT22;8529;48.108;-1.706;2023-02-28T15:34:47;6.60;99.90
16825;DHT22;8529;48.108;-1.706;2023-02-28T15:37:29;6.50;99.90
16825;DHT22;8529;48.108;-1.706;2023-02-28T15:40:04;6.40;99.90
16825;DHT22;8529;48.108;-1.706;2023-02-28T15:42:31;6.40;99.90
16825;DHT22;8529;48.108;-1.706;2023-02-28T15:44:58;6.40;99.90
16825;DHT22;8529;48.108;-1.706;2023-02-28T15:47:27;6.30;99.90
16825;DHT22;8529;48.108;-1.706;2023-02-28T15:49:59;6.30;99.90
16825;DHT22;8529;48.108;-1.706;2023-02-28T15:52:29;6.20;99.90
16825;DHT22;8529;48.108;-1.706;2023-02-28T15:54:58;6.30;99.90
16825;DHT22;8529;48.108;-1.706;2023-02-28T15:57:28;6.20;99.90
16825;DHT22;8529;48.108;-1.706;2023-02-28T15:59:57;6.10;99.90
16825;DHT22;8529;48.108;-1.706;2023-02-28T16:02:31;6.20;99.90
16825;DHT22;8529;48.108;-1.706;2023-02-28T16:05:01;6.10;99.90
16825;DHT22;8529;48.108;-1.706;2023-02-28T16:07:28;6.00;99.90
16825;DHT22;8529;48.108;-1.706;2023-02-28T16:09:55;6.00;99.90
16825;DHT22;8529;48.108;-1.706;2023-02-28T16:12:26;6.00;99.90
16825;DHT22;8529;48.108;-1.706;2023-02-28T16:14:54;6.00;99.90
16825;DHT22;8529;48.108;-1.706;2023-02-28T16:17:23;6.00;99.90
16825;DHT22;8529;48.108;-1.706;2023-02-28T16:19:50;5.90;99.90
16825;DHT22;8529;48.108;-1.706;2023-02-28T16:22:17;5.90;99.90
16825;DHT22;8529;48.108;-1.706;2023-02-28T16:24:44;5.90;99.90
16825;DHT22;8529;48.108;-1.706;2023-02-28T16:27:18;6.00;99.90